sensor_id;sensor_type;location;lat;lon;timestamp;temperature;humidity
42145;DHT22;27813;43.516;11.890;2023-02-01T00:03:47;-3275.70;89.90
42145;DHT22;27813;43.516;11.890;2023-02-01T00:07:52;-3275.80;89.90
42145;DHT22;27813;43.516;11.890;2023-02-01T00:11:56;-3275.90;89.70
42145;DHT22;27813;43.516;11.890;2023-02-01T00:16:14;-3275.90;89.60
42145;DHT22;27813;43.516;11.890;2023-02-01T00:20:21;-3275.90;89.50
42145;DHT22;27813;43.516;11.890;2023-02-01T00:24:26;-3276.00;89.60
42145;DHT22;27813;43.516;11.890;2023-02-01T00:28:30;-3276.10;89.60
42145;DHT22;27813;43.516;11.890;2023-02-01T05:31:21;0.10;89.20
42145;DHT22;27813;43.516;11.890;2023-02-01T05:35:25;0.10;89.10
42145;DHT22;27813;43.516;11.890;2023-02-01T05:39:29;0.20;89.00
42145;DHT22;27813;43.516;11.890;2023-02-01T05:43:32;0.20;88.90
42145;DHT22;27813;43.516;11.890;2023-02-01T05:47:36;0.30;89.00
42145;DHT22;27813;43.516;11.890;2023-02-01T05:51:40;0.30;89.00
42145;DHT22;27813;43.516;11.890;2023-02-01T05:55:44;0.30;88.90
42145;DHT22;27813;43.516;11.890;2023-02-01T05:59:48;0.40;89.00
42145;DHT22;27813;43.516;11.890;2023-02-01T06:03:52;0.40;89.00
42145;DHT22;27813;43.516;11.890;2023-02-01T06:07:55;0.40;89.00
42145;DHT22;27813;43.516;11.890;2023-02-01T06:12:00;0.40;89.10
42145;DHT22;27813;43.516;11.890;2023-02-01T06:16:04;0.50;88.90
42145;DHT22;27813;43.516;11.890;2023-02-01T06:20:12;0.50;88.90
42145;DHT22;27813;43.516;11.890;2023-02-01T06:24:16;0.50;88.90
42145;DHT22;27813;43.516;11.890;2023-02-01T06:28:20;0.50;88.90
42145;DHT22;27813;43.516;11.890;2023-02-01T06:32:25;0.50;88.90
42145;DHT22;27813;43.516;11.890;2023-02-01T06:36:29;0.60;88.80
42145;DHT22;27813;43.516;11.890;2023-02-01T06:40:33;0.60;88.80
42145;DHT22;27813;43.516;11.890;2023-02-01T06:44:38;0.70;88.80
42145;DHT22;27813;43.516;11.890;2023-02-01T06:48:42;0.70;88.70
42145;DHT22;27813;43.516;11.890;2023-02-01T06:52:46;0.70;88.80
42145;DHT22;27813;43.516;11.890;2023-02-01T06:56:50;0.70;88.80
42145;DHT22;27813;43.516;11.890;2023-02-01T07:00:54;0.80;88.80
42145;DHT22;27813;43.516;11.890;2023-02-01T07:04:58;0.80;88.60
42145;DHT22;27813;43.516;11.890;2023-02-01T07:09:01;0.80;88.70
42145;DHT22;27813;43.516;11.890;2023-02-01T07:13:05;0.80;88.80
42145;DHT22;27813;43.516;11.890;2023-02-01T07:17:09;0.90;88.80
42145;DHT22;27813;43.516;11.890;2023-02-01T07:21:13;1.00;88.70
42145;DHT22;27813;43.516;11.890;2023-02-01T07:25:17;1.00;88.50
42145;DHT22;27813;43.516;11.890;2023-02-01T07:29:21;1.00;88.20
42145;DHT22;27813;43.516;11.890;2023-02-01T07:33:24;0.90;88.60
42145;DHT22;27813;43.516;11.890;2023-02-01T07:37:30;0.90;88.80
42145;DHT22;27813;43.516;11.890;2023-02-01T07:41:34;1.00;88.60
42145;DHT22;27813;43.516;11.890;2023-02-01T07:45:39;1.20;88.60
42145;DHT22;27813;43.516;11.890;2023-02-01T07:49:43;1.40;88.50
42145;DHT22;27813;43.516;11.890;2023-02-01T07:53:46;1.60;88.30
42145;DHT22;27813;43.516;11.890;2023-02-01T07:57:50;1.80;88.10
42145;DHT22;27813;43.516;11.890;2023-02-01T08:01:55;1.90;87.90
42145;DHT22;27813;43.516;11.890;2023-02-01T08:05:58;2.00;88.00
42145;DHT22;27813;43.516;11.890;2023-02-01T08:10:02;2.40;87.80
42145;DHT22;27813;43.516;11.890;2023-02-01T08:14:08;2.50;87.40
42145;DHT22;27813;43.516;11.890;2023-02-01T08:18:12;2.60;87.10
42145;DHT22;27813;43.516;11.890;2023-02-01T08:22:19;2.70;87.10
42145;DHT22;27813;43.516;11.890;2023-02-01T08:26:25;2.80;87.00
42145;DHT22;27813;43.516;11.890;2023-02-01T08:30:29;2.80;86.90
42145;DHT22;27813;43.516;11.890;2023-02-01T08:34:33;2.80;87.00
42145;DHT22;27813;43.516;11.890;2023-02-01T08:38:39;2.90;87.10
42145;DHT22;27813;43.516;11.890;2023-02-01T08:42:44;3.10;87.10
42145;DHT22;27813;43.516;11.890;2023-02-01T08:46:54;3.40;87.00
42145;DHT22;27813;43.516;11.890;2023-02-01T08:51:02;3.50;86.50
42145;DHT22;27813;43.516;11.890;2023-02-01T08:55:07;3.60;86.30
42145;DHT22;27813;43.516;11.890;2023-02-01T08:59:11;3.70;86.10
42145;DHT22;27813;43.516;11.890;2023-02-01T09:03:15;3.70;86.00
42145;DHT22;27813;43.516;11.890;2023-02-01T09:07:19;3.60;86.10
42145;DHT22;27813;43.516;11.890;2023-02-01T09:11:22;3.60;86.20
42145;DHT22;27813;43.516;11.890;2023-02-01T09:15:26;3.70;86.20
42145;DHT22;27813;43.516;11.890;2023-02-01T09:19:30;3.70;86.20
42145;DHT22;27813;43.516;11.890;2023-02-01T09:23:35;3.80;86.10
42145;DHT22;27813;43.516;11.890;2023-02-01T09:27:38;3.80;85.90
42145;DHT22;27813;43.516;11.890;2023-02-01T09:31:42;3.80;85.90
42145;DHT22;27813;43.516;11.890;2023-02-01T09:36:05;3.80;86.00
42145;DHT22;27813;43.516;11.890;2023-02-01T09:40:16;3.80;85.90
42145;DHT22;27813;43.516;11.890;2023-02-01T09:48:47;3.80;86.00
42145;DHT22;27813;43.516;11.890;2023-02-01T09:52:59;3.90;85.80
42145;DHT22;27813;43.516;11.890;2023-02-01T09:57:11;3.90;85.80
42145;DHT22;27813;43.516;11.890;2023-02-01T10:01:21;3.90;85.80
42145;DHT22;27813;43.516;11.890;2023-02-01T10:09:47;4.00;85.80
42145;DHT22;27813;43.516;11.890;2023-02-01T10:14:02;4.00;85.60
42145;DHT22;27813;43.516;11.890;2023-02-01T10:27:14;4.00;85.70
42145;DHT22;27813;43.516;11.890;2023-02-01T10:31:24;4.00;85.80
42145;DHT22;27813;43.516;11.890;2023-02-01T10:35:31;4.00;85.80
42145;DHT22;27813;43.516;11.890;2023-02-01T10:39:36;4.10;85.80
42145;DHT22;27813;43.516;11.890;2023-02-01T10:43:42;4.20;85.80
42145;DHT22;27813;43.516;11.890;2023-02-01T10:47:49;4.30;85.60
42145;DHT22;27813;43.516;11.890;2023-02-01T10:52:10;4.30;85.60
42145;DHT22;27813;43.516;11.890;2023-02-01T10:56:22;4.40;85.50
42145;DHT22;27813;43.516;11.890;2023-02-01T11:00:28;4.40;85.50
42145;DHT22;27813;43.516;11.890;2023-02-01T11:04:35;4.50;85.50
42145;DHT22;27813;43.516;11.890;2023-02-01T11:08:50;4.60;85.30
42145;DHT22;27813;43.516;11.890;2023-02-01T11:12:54;4.70;85.20
42145;DHT22;27813;43.516;11.890;2023-02-01T11:21:05;4.80;85.10
42145;DHT22;27813;43.516;11.890;2023-02-01T11:25:13;4.80;85.00
42145;DHT22;27813;43.516;11.890;2023-02-01T11:29:18;4.80;85.10
42145;DHT22;27813;43.516;11.890;2023-02-01T11:33:30;4.90;85.10
42145;DHT22;27813;43.516;11.890;2023-02-01T11:37:41;5.00;85.10
42145;DHT22;27813;43.516;11.890;2023-02-01T11:46:18;5.20;84.80
42145;DHT22;27813;43.516;11.890;2023-02-01T12:05:02;5.70;84.40
42145;DHT22;27813;43.516;11.890;2023-02-01T12:18:41;6.20;83.90
42145;DHT22;27813;43.516;11.890;2023-02-01T12:31:28;7.10;82.70
42145;DHT22;27813;43.516;11.890;2023-02-01T12:35:49;7.20;82.40
42145;DHT22;27813;43.516;11.890;2023-02-01T12:40:28;7.30;82.30
42145;DHT22;27813;43.516;11.890;2023-02-01T12:44:57;7.40;82.20
42145;DHT22;27813;43.516;11.890;2023-02-01T12:49:16;7.60;82.00
42145;DHT22;27813;43.516;11.890;2023-02-01T12:58:06;7.80;81.50
42145;DHT22;27813;43.516;11.890;2023-02-01T13:06:37;7.70;81.20
42145;DHT22;27813;43.516;11.890;2023-02-01T13:10:54;7.60;81.40
42145;DHT22;27813;43.516;11.890;2023-02-01T13:15:16;7.50;81.70
42145;DHT22;27813;43.516;11.890;2023-02-01T13:19:23;7.60;81.80
42145;DHT22;27813;43.516;11.890;2023-02-01T13:23:30;7.80;81.90
42145;DHT22;27813;43.516;11.890;2023-02-01T13:27:34;7.90;81.50
42145;DHT22;27813;43.516;11.890;2023-02-01T13:48:59;8.60;80.90
42145;DHT22;27813;43.516;11.890;2023-02-01T13:53:20;8.80;80.60
42145;DHT22;27813;43.516;11.890;2023-02-01T13:57:36;8.90;80.40
42145;DHT22;27813;43.516;11.890;2023-02-01T14:01:41;9.00;80.10
42145;DHT22;27813;43.516;11.890;2023-02-01T14:09:50;9.00;80.20
42145;DHT22;27813;43.516;11.890;2023-02-01T14:13:54;9.00;80.20
42145;DHT22;27813;43.516;11.890;2023-02-01T14:17:58;9.00;80.30
42145;DHT22;27813;43.516;11.890;2023-02-01T14:30:40;9.10;80.40
42145;DHT22;27813;43.516;11.890;2023-02-01T14:38:52;9.30;80.30
42145;DHT22;27813;43.516;11.890;2023-02-01T14:42:56;9.40;80.20
42145;DHT22;27813;43.516;11.890;2023-02-01T14:51:24;8.90;79.90
42145;DHT22;27813;43.516;11.890;2023-02-01T14:55:45;8.50;80.60
42145;DHT22;27813;43.516;11.890;2023-02-01T14:59:59;8.30;81.20
42145;DHT22;27813;43.516;11.890;2023-02-01T15:04:10;8.20;81.70
42145;DHT22;27813;43.516;11.890;2023-02-01T15:08:16;8.30;81.90
42145;DHT22;27813;43.516;11.890;2023-02-01T15:12:26;8.30;81.90
42145;DHT22;27813;43.516;11.890;2023-02-01T15:16:34;8.40;81.80
42145;DHT22;27813;43.516;11.890;2023-02-01T15:20:57;8.40;81.70
42145;DHT22;27813;43.516;11.890;2023-02-01T15:25:24;8.40;81.80
42145;DHT22;27813;43.516;11.890;2023-02-01T15:29:28;8.40;81.80
42145;DHT22;27813;43.516;11.890;2023-02-01T15:33:35;8.40;81.80
42145;DHT22;27813;43.516;11.890;2023-02-01T15:37:40;8.20;81.60
42145;DHT22;27813;43.516;11.890;2023-02-01T15:41:46;7.90;81.80
42145;DHT22;27813;43.516;11.890;2023-02-01T15:45:51;7.60;82.20
42145;DHT22;27813;43.516;11.890;2023-02-01T15:49:57;7.30;82.60
42145;DHT22;27813;43.516;11.890;2023-02-01T15:54:05;6.90;83.00
42145;DHT22;27813;43.516;11.890;2023-02-01T15:58:21;6.50;83.40
42145;DHT22;27813;43.516;11.890;2023-02-01T16:15:09;5.10;85.60
42145;DHT22;27813;43.516;11.890;2023-02-01T16:19:13;4.90;85.90
42145;DHT22;27813;43.516;11.890;2023-02-01T16:23:17;4.60;86.20
42145;DHT22;27813;43.516;11.890;2023-02-01T16:27:23;4.40;86.60
42145;DHT22;27813;43.516;11.890;2023-02-01T16:31:30;4.30;87.00
42145;DHT22;27813;43.516;11.890;2023-02-01T16:35:36;4.20;87.10
42145;DHT22;27813;43.516;11.890;2023-02-01T16:39:40;4.00;87.20
42145;DHT22;27813;43.516;11.890;2023-02-01T16:43:44;3.90;87.30
42145;DHT22;27813;43.516;11.890;2023-02-01T16:47:54;3.80;87.60
42145;DHT22;27813;43.516;11.890;2023-02-01T16:51:58;3.70;87.80
42145;DHT22;27813;43.516;11.890;2023-02-01T16:56:15;3.60;87.70
42145;DHT22;27813;43.516;11.890;2023-02-01T17:00:19;3.50;88.00
42145;DHT22;27813;43.516;11.890;2023-02-01T17:04:27;3.50;88.20
42145;DHT22;27813;43.516;11.890;2023-02-01T17:08:36;3.50;88.20
42145;DHT22;27813;43.516;11.890;2023-02-01T17:12:40;3.40;88.10
42145;DHT22;27813;43.516;11.890;2023-02-01T17:16:46;3.20;87.80
42145;DHT22;27813;43.516;11.890;2023-02-01T17:20:52;2.90;88.20
42145;DHT22;27813;43.516;11.890;2023-02-01T17:24:56;2.70;88.80
42145;DHT22;27813;43.516;11.890;2023-02-01T17:29:00;2.60;89.00
42145;DHT22;27813;43.516;11.890;2023-02-01T17:33:05;2.40;89.20
42145;DHT22;27813;43.516;11.890;2023-02-01T17:37:25;2.40;89.50
42145;DHT22;27813;43.516;11.890;2023-02-01T17:41:29;2.30;89.90
42145;DHT22;27813;43.516;11.890;2023-02-01T17:45:39;2.40;90.00
42145;DHT22;27813;43.516;11.890;2023-02-01T17:49:45;2.50;90.20
42145;DHT22;27813;43.516;11.890;2023-02-01T17:53:49;2.70;90.00
42145;DHT22;27813;43.516;11.890;2023-02-01T17:57:52;2.80;89.70
42145;DHT22;27813;43.516;11.890;2023-02-01T18:01:56;2.90;89.70
42145;DHT22;27813;43.516;11.890;2023-02-01T18:06:03;3.10;89.60
42145;DHT22;27813;43.516;11.890;2023-02-01T18:10:09;3.20;89.40
42145;DHT22;27813;43.516;11.890;2023-02-01T18:14:12;3.20;89.30
42145;DHT22;27813;43.516;11.890;2023-02-01T18:18:16;3.20;89.30
42145;DHT22;27813;43.516;11.890;2023-02-01T18:22:22;3.20;89.20
42145;DHT22;27813;43.516;11.890;2023-02-01T18:26:27;3.20;89.10
42145;DHT22;27813;43.516;11.890;2023-02-01T18:30:33;3.30;89.10
42145;DHT22;27813;43.516;11.890;2023-02-01T18:34:37;3.20;89.10
42145;DHT22;27813;43.516;11.890;2023-02-01T18:38:41;3.10;89.00
42145;DHT22;27813;43.516;11.890;2023-02-01T18:42:45;3.00;88.80
42145;DHT22;27813;43.516;11.890;2023-02-01T18:46:50;2.80;88.90
42145;DHT22;27813;43.516;11.890;2023-02-01T18:50:56;2.60;89.40
42145;DHT22;27813;43.516;11.890;2023-02-01T18:55:01;2.40;89.70
42145;DHT22;27813;43.516;11.890;2023-02-01T18:59:05;2.30;89.90
42145;DHT22;27813;43.516;11.890;2023-02-01T19:03:13;2.30;90.00
42145;DHT22;27813;43.516;11.890;2023-02-01T19:07:18;2.20;90.10
42145;DHT22;27813;43.516;11.890;2023-02-01T19:11:21;2.20;90.40
42145;DHT22;27813;43.516;11.890;2023-02-01T19:15:25;2.20;90.50
42145;DHT22;27813;43.516;11.890;2023-02-01T19:19:29;2.10;90.30
42145;DHT22;27813;43.516;11.890;2023-02-01T19:23:33;2.00;90.50
42145;DHT22;27813;43.516;11.890;2023-02-01T19:27:38;2.00;90.80
42145;DHT22;27813;43.516;11.890;2023-02-01T19:31:41;2.00;90.70
42145;DHT22;27813;43.516;11.890;2023-02-01T19:35:47;2.00;90.60
42145;DHT22;27813;43.516;11.890;2023-02-01T19:39:51;2.10;90.60
42145;DHT22;27813;43.516;11.890;2023-02-01T19:43:55;2.00;90.60
42145;DHT22;27813;43.516;11.890;2023-02-01T19:48:01;2.00;90.90
42145;DHT22;27813;43.516;11.890;2023-02-01T19:52:06;2.20;91.00
42145;DHT22;27813;43.516;11.890;2023-02-01T19:56:11;2.30;90.90
42145;DHT22;27813;43.516;11.890;2023-02-01T20:00:15;2.40;90.80
42145;DHT22;27813;43.516;11.890;2023-02-01T20:04:21;2.60;90.60
42145;DHT22;27813;43.516;11.890;2023-02-01T20:08:25;2.70;90.30
42145;DHT22;27813;43.516;11.890;2023-02-01T20:12:29;2.80;90.20
42145;DHT22;27813;43.516;11.890;2023-02-01T20:16:36;2.80;90.00
42145;DHT22;27813;43.516;11.890;2023-02-01T20:20:40;2.70;89.90
42145;DHT22;27813;43.516;11.890;2023-02-01T20:24:48;2.60;90.00
42145;DHT22;27813;43.516;11.890;2023-02-01T20:28:52;2.50;90.20
42145;DHT22;27813;43.516;11.890;2023-02-01T20:32:57;2.50;90.60
42145;DHT22;27813;43.516;11.890;2023-02-01T20:37:01;2.60;90.80
42145;DHT22;27813;43.516;11.890;2023-02-01T20:41:07;2.80;90.70
42145;DHT22;27813;43.516;11.890;2023-02-01T20:45:11;2.90;90.40
42145;DHT22;27813;43.516;11.890;2023-02-01T20:49:16;3.00;90.30
42145;DHT22;27813;43.516;11.890;2023-02-01T20:53:21;3.00;89.90
42145;DHT22;27813;43.516;11.890;2023-02-01T20:57:30;2.90;89.70
42145;DHT22;27813;43.516;11.890;2023-02-01T21:01:35;2.70;89.60
42145;DHT22;27813;43.516;11.890;2023-02-01T21:05:46;2.40;89.80
42145;DHT22;27813;43.516;11.890;2023-02-01T21:09:50;2.30;90.30
42145;DHT22;27813;43.516;11.890;2023-02-01T21:13:54;2.20;90.80
42145;DHT22;27813;43.516;11.890;2023-02-01T21:18:04;2.20;91.10
42145;DHT22;27813;43.516;11.890;2023-02-01T21:22:10;2.20;91.20
42145;DHT22;27813;43.516;11.890;2023-02-01T21:26:17;2.40;91.10
42145;DHT22;27813;43.516;11.890;2023-02-01T21:30:22;2.40;90.90
42145;DHT22;27813;43.516;11.890;2023-02-01T21:34:26;2.40;90.70
42145;DHT22;27813;43.516;11.890;2023-02-01T21:38:32;2.40;90.50
42145;DHT22;27813;43.516;11.890;2023-02-01T21:42:39;2.40;90.40
42145;DHT22;27813;43.516;11.890;2023-02-01T21:46:49;2.20;90.60
42145;DHT22;27813;43.516;11.890;2023-02-01T21:50:56;2.20;90.80
42145;DHT22;27813;43.516;11.890;2023-02-01T21:55:01;2.30;91.00
42145;DHT22;27813;43.516;11.890;2023-02-01T21:59:06;2.40;91.10
42145;DHT22;27813;43.516;11.890;2023-02-01T22:03:10;2.50;91.00
42145;DHT22;27813;43.516;11.890;2023-02-01T22:07:14;2.70;90.80
42145;DHT22;27813;43.516;11.890;2023-02-01T22:11:18;2.70;90.60
42145;DHT22;27813;43.516;11.890;2023-02-01T22:15:22;2.90;90.40
42145;DHT22;27813;43.516;11.890;2023-02-01T22:19:27;2.90;90.30
42145;DHT22;27813;43.516;11.890;2023-02-01T22:23:30;2.90;90.20
42145;DHT22;27813;43.516;11.890;2023-02-01T22:27:35;2.80;90.00
42145;DHT22;27813;43.516;11.890;2023-02-01T22:31:58;2.70;90.30
42145;DHT22;27813;43.516;11.890;2023-02-01T22:36:04;2.70;90.50
42145;DHT22;27813;43.516;11.890;2023-02-01T22:40:08;2.70;90.60
42145;DHT22;27813;43.516;11.890;2023-02-01T22:44:12;2.60;90.40
42145;DHT22;27813;43.516;11.890;2023-02-01T22:48:16;2.60;90.40
42145;DHT22;27813;43.516;11.890;2023-02-01T22:52:20;2.50;90.40
42145;DHT22;27813;43.516;11.890;2023-02-01T22:56:25;2.40;90.70
42145;DHT22;27813;43.516;11.890;2023-02-01T23:00:29;2.40;90.60
42145;DHT22;27813;43.516;11.890;2023-02-01T23:04:33;2.30;90.50
42145;DHT22;27813;43.516;11.890;2023-02-01T23:08:37;2.10;90.70
42145;DHT22;27813;43.516;11.890;2023-02-01T23:12:44;2.10;91.00
42145;DHT22;27813;43.516;11.890;2023-02-01T23:16:48;2.10;90.90
42145;DHT22;27813;43.516;11.890;2023-02-01T23:20:52;1.90;90.70
42145;DHT22;27813;43.516;11.890;2023-02-01T23:24:55;1.80;91.10
42145;DHT22;27813;43.516;11.890;2023-02-01T23:29:00;1.80;91.20
42145;DHT22;27813;43.516;11.890;2023-02-01T23:33:04;1.70;90.90
42145;DHT22;27813;43.516;11.890;2023-02-01T23:37:08;1.50;90.70
42145;DHT22;27813;43.516;11.890;2023-02-01T23:41:13;1.30;91.10
42145;DHT22;27813;43.516;11.890;2023-02-01T23:45:17;1.20;91.20
42145;DHT22;27813;43.516;11.890;2023-02-01T23:49:20;1.10;90.90
42145;DHT22;27813;43.516;11.890;2023-02-01T23:53:25;0.90;90.80
42145;DHT22;27813;43.516;11.890;2023-02-01T23:57:29;0.70;90.90
